Ukkel, België

2:02 AM CEST op 01 juli 2015 (GMT +0200)
Brussels National | | Change Station
CLOSE
Current Station
Luchthaven
Location: Brussels,
Geometrische hoogte: 190 ft
Nabije weerstations

Hoogte 190 ft 50.90 °N, 4.53 °E | Updated 12 minutes ago

Clear
Helder
68 °F
Voelt als 68 °F
N
5
Wind Variabel Wind van OZO

Vandaag
Hoog -- | Laag -- °F
--% Kans op neerslag
Gisteren
Hoog -- | Laag -- °F
Precip. -- inches
5:33 AM 9:59 PM
Wassende maan, 98% visible
Druk 30.04 inches
Zicht -9999.0 mijlen
Wolken
Dauwpunt 52 °F
Vochtigheid 56%
Neerslag 0.00 inches
Dikte sneeuw Niet beschikbaar.
UV Niet beschikbaar.
Pollen Niet beschikbaar.
Luchtkwaliteit Niet beschikbaar.
Flu Activity Niet beschikbaar.
METAR EBBR 302350Z 11004KT CAVOK 20/11 Q1017 NOSIG

More Conditions Fewer Conditions

Druk 30.04 inches
Zicht -9999.0 mijlen
Wolken
Dauwpunt 52 °F
Vochtigheid 56%
Neerslag 0.00 inches
Dikte sneeuw Niet beschikbaar.
UV Niet beschikbaar.
Pollen Niet beschikbaar.
Luchtkwaliteit Niet beschikbaar.
Flu Activity Niet beschikbaar.
METAR EBBR 302350Z 11004KT CAVOK 20/11 Q1017 NOSIG

More Conditions Fewer Conditions

10-Day Weather Forecast

×

Almanac

Astronomie

Jul. 01, 2015 Opkomst Ondergang
Werkelijke tijd
Burgerlijke schemering
Nautische schemering
Astronomische schemering
Maan
Golflengte van het zichtbare licht
Daglengte
Tomorrow will be .
, % of the Moon is Illuminated

Extremen vandaag

Country Highs Country Lows

Community

WunderPhotos

Upload Photos

1,834,070 foto’s ge-upload!

WunderBlogs® & News

Nearby

Luchtkwaliteit

  Luchtkwaliteit LK-index Verontreinigende stof
Not available.

Dikte sneeuw

Station Depth Geometrische hoogte

Aardbevingen

Stad Distance Mag. Time & Date
Minimum magnitude displayed is 2.5.

Watertemperatuur langs de kust

Plaats Temperatuur

Stations

Nabije weerstations

Locatie station Temp. Gevoelstemperatuur Dauwpunt Vochtigheid Wind Precip. Hoogte Geactualiseerd Type